createdAt,value
2022-09-10T00:02:27.285Z,98654.00
2022-09-10T00:05:29.158Z,98655.25
2022-09-10T00:08:31.289Z,98667.38
2022-09-10T00:11:33.086Z,98667.38
2022-09-10T00:14:36.046Z,98663.28
2022-09-10T00:17:39.206Z,98665.19
2022-09-10T00:20:44.339Z,98664.91
2022-09-10T00:23:45.934Z,98664.38
2022-09-10T00:26:47.545Z,98663.09
2022-09-10T00:29:51.825Z,98669.75
2022-09-10T00:32:53.932Z,98675.28
2022-09-10T00:35:55.498Z,98676.03
2022-09-10T00:38:58.522Z,98676.34
2022-09-10T00:42:00.085Z,98684.38
2022-09-10T00:45:02.442Z,98681.50
2022-09-10T00:48:11.585Z,98679.28
2022-09-10T00:51:13.189Z,98680.88
2022-09-10T00:54:14.963Z,98689.41
2022-09-10T00:57:20.954Z,98685.44
2022-09-10T01:00:22.996Z,98693.00
2022-09-10T01:03:25.702Z,98684.66
2022-09-10T01:06:27.927Z,98690.00
2022-09-10T01:09:29.569Z,98695.38
2022-09-10T01:12:35.665Z,98685.44
2022-09-10T01:15:46.287Z,98691.28
2022-09-10T01:18:51.200Z,98688.13
2022-09-10T01:21:58.857Z,98692.03
2022-09-10T01:25:05.438Z,98686.66
2022-09-10T01:28:09.225Z,98702.22
2022-09-10T01:31:26.438Z,98715.63
2022-09-10T01:34:54.448Z,98713.56
2022-09-10T01:37:57.798Z,98705.81
2022-09-10T01:40:59.770Z,98691.31
2022-09-10T01:44:11.476Z,98713.84
2022-09-10T01:47:36.374Z,98708.81
2022-09-10T01:50:57.374Z,98711.47
2022-09-10T01:54:05.293Z,98723.75
2022-09-10T01:57:12.983Z,98726.44
2022-09-10T02:00:17.649Z,98729.13
2022-09-10T02:03:21.650Z,98730.50
2022-09-10T02:06:24.117Z,98731.91
2022-09-10T02:09:25.850Z,98742.03
2022-09-10T02:12:27.419Z,98738.25
2022-09-10T02:15:49.266Z,98743.88
2022-09-10T02:18:56.234Z,98752.75
2022-09-10T02:21:57.802Z,98746.56
2022-09-10T02:24:59.750Z,98750.34
2022-09-10T02:28:01.379Z,98745.91
2022-09-10T02:31:03.267Z,98752.22
2022-09-10T02:34:04.876Z,98757.38
2022-09-10T02:37:06.553Z,98764.63
2022-09-10T02:40:11.593Z,98759.28
2022-09-10T02:43:13.369Z,98773.25
2022-09-10T02:46:15.195Z,98766.84
2022-09-10T02:49:18.089Z,98781.41
2022-09-10T02:52:21.151Z,98778.72
2022-09-10T02:55:22.820Z,98790.00
2022-09-10T02:58:24.526Z,98784.50
2022-09-10T03:01:26.347Z,98782.09
2022-09-10T03:04:34.301Z,98786.97
2022-09-10T03:07:36.981Z,98791.81
2022-09-10T03:10:38.670Z,98786.47
2022-09-10T03:13:42.609Z,98791.53
2022-09-10T03:16:49.604Z,98789.63
2022-09-10T03:19:51.245Z,98799.84
2022-09-10T03:22:52.776Z,98792.78
2022-09-10T03:25:54.641Z,98792.00
2022-09-10T03:29:00.198Z,98797.56
2022-09-10T03:32:04.821Z,98805.28
2022-09-10T03:35:06.596Z,98800.56
2022-09-10T03:38:08.282Z,98799.34
2022-09-10T03:41:10.230Z,98794.88
2022-09-10T03:44:13.030Z,98797.56
2022-09-10T03:47:14.783Z,98801.94
2022-09-10T03:50:17.097Z,98799.84
2022-09-10T03:53:19.369Z,98800.16
2022-09-10T03:56:21.307Z,98800.34
2022-09-10T03:59:23.071Z,98796.97
2022-09-10T04:02:24.709Z,98800.16
2022-09-10T04:05:27.661Z,98798.38
2022-09-10T04:08:29.254Z,98796.47
2022-09-10T04:11:31.138Z,98808.56
2022-09-10T04:14:33.354Z,98798.47
2022-09-10T04:17:36.234Z,98806.97
2022-09-10T04:20:39.114Z,98818.16
2022-09-10T04:23:45.681Z,98810.75
2022-09-10T04:26:47.319Z,98818.16
2022-09-10T04:29:51.536Z,98824.59
2022-09-10T04:32:54.788Z,98827.28
2022-09-10T04:36:00.506Z,98821.16
2022-09-10T04:39:02.214Z,98828.69
2022-09-10T04:42:06.832Z,98831.06
2022-09-10T04:45:12.266Z,98828.97
2022-09-10T04:48:13.986Z,98829.97
2022-09-10T04:51:17.170Z,98837.78
2022-09-10T04:54:21.494Z,98835.63
2022-09-10T04:57:23.700Z,98835.31
2022-09-10T05:00:26.615Z,98846.63
2022-09-10T05:03:28.765Z,98836.41
2022-09-10T05:06:30.645Z,98851.88
2022-09-10T05:09:33.597Z,98854.34
2022-09-10T05:12:38.556Z,98861.59
2022-09-10T05:15:41.535Z,98854.72
2022-09-10T05:18:43.797Z,98859.59
2022-09-10T05:21:46.045Z,98865.53
2022-09-10T05:24:47.765Z,98855.63
2022-09-10T05:27:51.265Z,98863.63
2022-09-10T05:30:55.230Z,98873.06
2022-09-10T05:34:01.186Z,98873.34
2022-09-10T05:37:05.489Z,98880.28
2022-09-10T05:40:09.219Z,98874.13
2022-09-10T05:43:12.040Z,98879.47
2022-09-10T05:46:13.767Z,98880.09
2022-09-10T05:49:19.609Z,98874.81
2022-09-10T05:52:21.493Z,98883.94
2022-09-10T05:55:23.345Z,98889.03
2022-09-10T05:58:25.010Z,98900.53
2022-09-10T06:01:27.386Z,98895.72
2022-09-10T06:04:29.044Z,98898.09
2022-09-10T06:07:31.305Z,98914.44
2022-09-10T06:10:35.402Z,98917.59
2022-09-10T06:13:38.523Z,98920.78
2022-09-10T06:16:40.442Z,98923.16
2022-09-10T06:19:44.717Z,98927.44
2022-09-10T06:22:46.356Z,98934.00
2022-09-10T06:25:48.501Z,98939.13
2022-09-10T06:28:50.091Z,98939.66
2022-09-10T06:31:52.766Z,98952.81
2022-09-10T06:34:54.569Z,98949.56
2022-09-10T06:37:58.162Z,98954.13
2022-09-10T06:41:02.344Z,98951.72
2022-09-10T06:44:10.769Z,98952.22
2022-09-10T06:50:39.063Z,98960.25
2022-09-10T06:53:41.753Z,98956.69
2022-09-10T06:56:48.944Z,98954.72
2022-09-10T06:59:50.537Z,98951.78
2022-09-10T07:02:52.603Z,98941.88
2022-09-10T07:06:02.828Z,98947.44
2022-09-10T07:09:04.691Z,98930.47
2022-09-10T07:12:11.368Z,98948.03
2022-09-10T07:15:15.213Z,98951.81
2022-09-10T07:18:16.800Z,98960.31
2022-09-10T07:21:19.478Z,98955.47
2022-09-10T07:24:22.278Z,98963.00
2022-09-10T07:27:35.254Z,98958.16
2022-09-10T07:30:37.242Z,98966.66
2022-09-10T07:33:39.378Z,98971.44
2022-09-10T07:36:41.048Z,98972.22
2022-09-10T07:39:43.947Z,98972.75
2022-09-10T07:42:46.057Z,98975.69
2022-09-10T07:45:47.748Z,98984.56
2022-09-10T07:48:52.979Z,98977.31
2022-09-10T07:51:59.704Z,98987.81
2022-09-10T07:55:05.825Z,98990.03
2022-09-10T07:58:08.241Z,98989.03
2022-09-10T08:01:12.512Z,99001.31
2022-09-10T08:04:14.543Z,98987.34
2022-09-10T08:07:17.278Z,98995.44
2022-09-10T08:10:19.701Z,98991.91
2022-09-10T08:13:23.758Z,99003.78
2022-09-10T08:16:25.470Z,98997.69
2022-09-10T08:19:30.148Z,98991.94
2022-09-10T08:22:31.777Z,98997.78
2022-09-10T08:25:34.809Z,99005.03
2022-09-10T08:28:37.744Z,99015.66
2022-09-10T08:31:42.445Z,99017.94
2022-09-10T08:34:52.578Z,99013.06
2022-09-10T08:37:54.178Z,99019.34
2022-09-10T08:40:57.484Z,99016.25
2022-09-10T08:44:09.048Z,99026.91
2022-09-10T08:47:14.931Z,99035.75
2022-09-10T08:50:21.018Z,99026.69
2022-09-10T08:53:29.871Z,99040.69
2022-09-10T08:56:33.063Z,99037.47
2022-09-10T08:59:36.015Z,99056.44
2022-09-10T09:02:56.506Z,99058.84
2022-09-10T09:05:59.234Z,99049.22
2022-09-10T09:09:12.280Z,99064.97
2022-09-10T09:12:34.922Z,99054.03
2022-09-10T09:15:59.237Z,99063.91
2022-09-10T09:19:04.366Z,99061.69
2022-09-10T09:22:09.035Z,99063.81
2022-09-10T09:25:12.187Z,99058.56
2022-09-10T09:28:19.498Z,99077.94
2022-09-10T09:31:28.772Z,99067.91
2022-09-10T09:34:39.242Z,99081.00
2022-09-10T09:37:41.615Z,99076.53
2022-09-10T09:40:44.884Z,99085.97
2022-09-10T09:43:53.172Z,99087.06
2022-09-10T09:46:56.914Z,99094.03
2022-09-10T09:49:58.869Z,99099.56
2022-09-10T09:53:00.421Z,99102.75
2022-09-10T09:56:02.757Z,99110.09
2022-09-10T09:59:15.033Z,99104.25
2022-09-10T10:02:17.971Z,99103.13
2022-09-10T10:05:25.730Z,99101.88
2022-09-10T10:08:31.383Z,99108.69
2022-09-10T10:11:43.612Z,99115.75
2022-09-10T10:14:45.134Z,99114.34
2022-09-10T10:17:47.212Z,99103.94
2022-09-10T10:20:49.310Z,99117.06
2022-09-10T10:23:50.836Z,99109.22
2022-09-10T10:26:52.384Z,99113.09
2022-09-10T10:30:12.522Z,99114.28
2022-09-10T10:33:22.176Z,99119.22
2022-09-10T10:36:52.293Z,99123.22
2022-09-10T10:39:53.921Z,99128.59
2022-09-10T10:43:15.189Z,99122.81
2022-09-10T10:46:16.753Z,99124.50
2022-09-10T10:49:22.869Z,99127.09
2022-09-10T10:52:27.450Z,99128.34
2022-09-10T10:55:39.145Z,99130.06
2022-09-10T10:58:53.947Z,99132.66
2022-09-10T11:01:58.104Z,99130.97
2022-09-10T11:05:01.467Z,99125.91
2022-09-10T11:08:06.675Z,99136.41
2022-09-10T11:11:09.785Z,99130.47
2022-09-10T11:14:14.367Z,99130.75
2022-09-10T11:17:18.764Z,99124.38
2022-09-10T11:20:29.346Z,99121.47
2022-09-10T11:23:40.204Z,99125.34
2022-09-10T11:26:41.893Z,99122.91
2022-09-10T11:29:44.962Z,99128.59
2022-09-10T11:32:57.925Z,99126.91
2022-09-10T11:36:00.083Z,99124.69
2022-09-10T11:39:07.087Z,99128.78
2022-09-10T11:42:33.477Z,99124.28
2022-09-10T11:45:36.238Z,99120.00
2022-09-10T11:48:42.848Z,99136.88
2022-09-10T11:51:44.385Z,99129.53
2022-09-10T11:54:48.985Z,99129.63
2022-09-10T11:57:58.420Z,99132.88
2022-09-10T12:01:11.815Z,99139.56
2022-09-10T12:04:22.258Z,99144.91
2022-09-10T12:07:25.740Z,99141.59
2022-09-10T12:10:28.945Z,99136.06
2022-09-10T12:13:33.268Z,99138.03
2022-09-10T12:16:38.718Z,99140.69
2022-09-10T12:19:41.401Z,99138.84
2022-09-10T12:22:42.906Z,99151.03
2022-09-10T12:25:44.434Z,99145.59
2022-09-10T12:28:45.962Z,99154.72
2022-09-10T12:32:06.377Z,99158.09
2022-09-10T12:35:26.465Z,99155.09
2022-09-10T12:38:46.365Z,99163.56
2022-09-10T12:41:47.829Z,99161.84
2022-09-10T12:44:49.586Z,99154.63
2022-09-10T12:47:52.424Z,99160.19
2022-09-10T12:50:56.091Z,99156.53
2022-09-10T12:54:03.672Z,99154.94
2022-09-10T12:57:09.567Z,99174.75
2022-09-10T13:00:17.290Z,99163.66
2022-09-10T13:03:19.783Z,99172.47
2022-09-10T13:06:21.309Z,99172.28
2022-09-10T13:09:24.146Z,99173.03
2022-09-10T13:12:25.801Z,99179.53
2022-09-10T13:15:31.194Z,99167.41
2022-09-10T13:18:34.158Z,99163.34
2022-09-10T13:21:35.689Z,99163.66
2022-09-10T13:24:37.978Z,99170.59
2022-09-10T13:27:40.034Z,99168.00
2022-09-10T13:30:41.647Z,99165.06
2022-09-10T13:33:49.211Z,99170.31
2022-09-10T13:36:53.791Z,99177.25
2022-09-10T13:40:13.814Z,99176.66
2022-09-10T13:43:15.390Z,99176.47
2022-09-10T13:46:35.840Z,99176.38
2022-09-10T13:49:53.790Z,99182.69
2022-09-10T13:52:58.863Z,99183.78
2022-09-10T13:56:01.117Z,99177.84
2022-09-10T13:59:03.119Z,99180.53
2022-09-10T14:02:04.881Z,99182.47
2022-09-10T14:05:22.227Z,99187.56
2022-09-10T14:08:25.654Z,99197.50
2022-09-10T14:11:30.581Z,99190.25
2022-09-10T14:14:34.103Z,99194.47
2022-09-10T14:17:37.069Z,99186.69
2022-09-10T14:20:38.602Z,99188.16
2022-09-10T14:23:46.813Z,99195.81
2022-09-10T14:27:04.162Z,99196.09
2022-09-10T14:30:18.374Z,99196.69
2022-09-10T14:33:26.550Z,99186.31
2022-09-10T14:36:28.173Z,99190.25
2022-09-10T14:39:30.057Z,99195.88
2022-09-10T14:42:32.978Z,99188.16
2022-09-10T14:45:54.744Z,99185.38
2022-09-10T14:49:01.865Z,99191.53
2022-09-10T14:52:03.622Z,99178.63
2022-09-10T14:55:05.306Z,99193.31
2022-09-10T14:58:06.842Z,99187.69
2022-09-10T15:01:09.336Z,99190.94
2022-09-10T15:04:18.519Z,99192.63
2022-09-10T15:07:20.213Z,99187.47
2022-09-10T15:10:21.874Z,99180.59
2022-09-10T15:13:23.358Z,99183.59
2022-09-10T15:16:25.034Z,99186.47
2022-09-10T15:19:26.697Z,99185.00
2022-09-10T15:22:29.815Z,99185.00
2022-09-10T15:25:41.373Z,99183.69
2022-09-10T15:28:42.951Z,99188.94
2022-09-10T15:31:44.747Z,99189.16
2022-09-10T15:34:46.326Z,99187.91
2022-09-10T15:37:47.890Z,99190.53
2022-09-10T15:40:49.929Z,99193.50
2022-09-10T15:43:51.569Z,99194.22
2022-09-10T15:46:53.141Z,99191.03
2022-09-10T15:49:54.933Z,99196.69
2022-09-10T15:52:56.462Z,99206.41
2022-09-10T15:55:59.162Z,99212.13
2022-09-10T15:59:01.828Z,99211.72
2022-09-10T16:02:03.430Z,99215.47
2022-09-10T16:05:06.049Z,99220.94
2022-09-10T16:08:07.806Z,99222.00
2022-09-10T16:11:11.134Z,99231.72
2022-09-10T16:14:13.583Z,99224.56
2022-09-10T16:17:17.407Z,99231.81
2022-09-10T16:20:20.427Z,99228.63
2022-09-10T16:23:22.067Z,99235.44
2022-09-10T16:26:24.685Z,99244.28
2022-09-10T16:29:26.443Z,99233.56
2022-09-10T16:32:28.832Z,99240.50
2022-09-10T16:35:30.410Z,99243.09
2022-09-10T16:38:32.427Z,99237.75
2022-09-10T16:41:33.964Z,99243.75
2022-09-10T16:44:35.745Z,99246.06
2022-09-10T16:47:37.850Z,99245.06
2022-09-10T16:50:39.470Z,99251.22
2022-09-10T16:53:41.598Z,99246.44
2022-09-10T16:56:44.348Z,99242.44
2022-09-10T16:59:47.910Z,99238.75
2022-09-10T17:02:50.981Z,99244.41
2022-09-10T17:05:53.018Z,99249.56
2022-09-10T17:08:55.339Z,99251.97
2022-09-10T17:11:56.906Z,99245.84
2022-09-10T17:14:58.502Z,99258.97
2022-09-10T17:18:00.364Z,99252.22
2022-09-10T17:21:01.890Z,99256.56
2022-09-10T17:24:04.158Z,99260.06
2022-09-10T17:27:06.759Z,99261.16
2022-09-10T17:30:08.594Z,99264.41
2022-09-10T17:33:11.984Z,99269.19
2022-09-10T17:36:13.532Z,99275.91
2022-09-10T17:39:15.278Z,99280.78
2022-09-10T17:42:17.583Z,99272.81
2022-09-10T17:45:19.839Z,99278.66
2022-09-10T17:48:25.155Z,99278.09
2022-09-10T17:51:30.850Z,99286.13
2022-09-10T17:54:32.680Z,99285.59
2022-09-10T17:57:35.701Z,99284.53
2022-09-10T18:00:39.814Z,99290.69
2022-09-10T18:03:41.841Z,99288.28
2022-09-10T18:06:46.815Z,99288.28
2022-09-10T18:09:50.555Z,99286.47
2022-09-10T18:12:52.093Z,99288.66
2022-09-10T18:15:53.779Z,99300.81
2022-09-10T18:19:00.054Z,99300.03
2022-09-10T18:22:01.674Z,99294.91
2022-09-10T18:25:03.232Z,99301.84
2022-09-10T18:28:04.796Z,99293.50
2022-09-10T18:31:06.654Z,99301.53
2022-09-10T18:34:11.171Z,99301.34
2022-09-10T18:37:13.866Z,99312.56
2022-09-10T18:40:15.774Z,99308.84
2022-09-10T18:43:17.354Z,99312.56
2022-09-10T18:46:20.153Z,99301.75
2022-09-10T18:49:23.421Z,99311.91
2022-09-10T18:52:24.988Z,99313.22
2022-09-10T18:55:26.528Z,99305.97
2022-09-10T18:58:28.150Z,99312.91
2022-09-10T19:01:31.007Z,99305.19
2022-09-10T19:04:38.403Z,99314.09
2022-09-10T19:07:50.724Z,99310.16
2022-09-10T19:10:53.813Z,99307.97
2022-09-10T19:13:55.881Z,99311.22
2022-09-10T19:16:58.044Z,99325.78
2022-09-10T19:19:59.575Z,99325.22
2022-09-10T19:23:01.142Z,99329.78
2022-09-10T19:26:03.185Z,99329.50
2022-09-10T19:29:05.108Z,99330.34
2022-09-10T19:32:07.013Z,99337.28
2022-09-10T19:35:10.344Z,99342.34
2022-09-10T19:38:36.145Z,99332.72
2022-09-10T19:41:35.550Z,99326.50
2022-09-10T19:44:37.337Z,99334.78
2022-09-10T19:47:38.897Z,99330.72
2022-09-10T19:50:40.737Z,99330.22
2022-09-10T19:53:42.327Z,99334.63
2022-09-10T19:56:44.459Z,99332.50
2022-09-10T19:59:46.174Z,99336.50
2022-09-10T20:02:49.750Z,99334.53
2022-09-10T20:05:51.319Z,99330.50
2022-09-10T20:08:52.837Z,99342.00
2022-09-10T20:11:54.367Z,99345.56
2022-09-10T20:14:55.935Z,99343.09
2022-09-10T20:17:57.435Z,99343.25
2022-09-10T20:21:34.621Z,99336.81
2022-09-10T20:24:36.141Z,99343.72
2022-09-10T20:27:37.797Z,99344.91
2022-09-10T20:30:39.714Z,99342.59
2022-09-10T20:33:42.428Z,99335.25
2022-09-10T20:36:44.286Z,99344.44
2022-09-10T20:39:48.471Z,99342.84
2022-09-10T20:42:53.165Z,99341.31
2022-09-10T20:45:54.738Z,99349.13
2022-09-10T20:49:02.687Z,99349.41
2022-09-10T20:52:04.525Z,99347.53
2022-09-10T20:55:06.461Z,99348.56
2022-09-10T20:58:08.181Z,99347.69
2022-09-10T21:01:10.669Z,99352.19
2022-09-10T21:04:13.170Z,99357.25
2022-09-10T21:07:15.106Z,99344.38
2022-09-10T21:10:16.695Z,99342.56
2022-09-10T21:13:18.456Z,99355.34
2022-09-10T21:16:21.092Z,99345.41
2022-09-10T21:19:22.626Z,99349.59
2022-09-10T21:22:24.183Z,99352.44
2022-09-10T21:25:26.155Z,99346.25
2022-09-10T21:28:27.697Z,99348.69
2022-09-10T21:31:29.484Z,99346.00
2022-09-10T21:34:32.417Z,99354.84
2022-09-10T21:37:33.993Z,99356.13
2022-09-10T21:40:35.526Z,99351.88
2022-09-10T21:43:37.027Z,99350.78
2022-09-10T21:46:39.572Z,99350.19
2022-09-10T21:49:41.134Z,99351.28
2022-09-10T21:52:43.778Z,99351.78
2022-09-10T21:55:45.495Z,99349.25
2022-09-10T21:58:47.117Z,99347.31
2022-09-10T22:01:48.926Z,99346.31
2022-09-10T22:04:50.661Z,99351.91
2022-09-10T22:07:53.036Z,99348.25
2022-09-10T22:10:54.551Z,99344.53
2022-09-10T22:14:01.196Z,99349.13
2022-09-10T22:17:03.292Z,99353.34
2022-09-10T22:20:05.269Z,99346.38
2022-09-10T22:23:07.001Z,99355.25
2022-09-10T22:26:12.589Z,99344.53
2022-09-10T22:29:18.121Z,99349.25
2022-09-10T22:32:19.621Z,99349.25
2022-09-10T22:35:21.201Z,99348.38
2022-09-10T22:38:22.807Z,99346.00
2022-09-10T22:41:24.378Z,99347.06
2022-09-10T22:44:26.310Z,99341.94
2022-09-10T22:47:27.912Z,99343.81
2022-09-10T22:50:29.413Z,99346.25
2022-09-10T22:53:30.965Z,99342.59
2022-09-10T22:56:32.703Z,99341.13
2022-09-10T22:59:37.478Z,99339.59
2022-09-10T23:02:39.291Z,99339.59
2022-09-10T23:05:41.643Z,99337.47
2022-09-10T23:08:44.082Z,99338.56
2022-09-10T23:11:45.918Z,99343.19
2022-09-10T23:14:47.418Z,99346.19
2022-09-10T23:17:48.942Z,99348.41
2022-09-10T23:20:50.857Z,99352.47
2022-09-10T23:23:56.394Z,99342.03
2022-09-10T23:26:57.954Z,99345.31
2022-09-10T23:29:59.450Z,99358.16
2022-09-10T23:33:00.927Z,99353.97
2022-09-10T23:36:03.660Z,99346.19
2022-09-10T23:39:06.762Z,99343.81
2022-09-10T23:42:08.883Z,99340.03
2022-09-10T23:45:10.724Z,99325.03
2022-09-10T23:48:12.202Z,99330.09
2022-09-10T23:51:14.050Z,99330.59
2022-09-10T23:54:15.590Z,99334.63
2022-09-10T23:57:17.505Z,99345.56
